sensor_id;sensor_type;location;lat;lon;timestamp;P1;durP1;ratioP1;P2;durP2;ratioP2
57593;SDS011;43423;46.510;6.686;2023-05-10T00:02:21;4.03;;;0.77;;
57593;SDS011;43423;46.510;6.686;2023-05-10T00:04:46;0.95;;;0.63;;
57593;SDS011;43423;46.510;6.686;2023-05-10T00:07:12;1.08;;;0.90;;
57593;SDS011;43423;46.510;6.686;2023-05-10T00:09:37;1.10;;;0.70;;
57593;SDS011;43423;46.510;6.686;2023-05-10T00:12:03;0.60;;;0.50;;
57593;SDS011;43423;46.510;6.686;2023-05-10T00:14:29;2.33;;;0.60;;
57593;SDS011;43423;46.510;6.686;2023-05-10T00:16:55;2.80;;;0.55;;
57593;SDS011;43423;46.510;6.686;2023-05-10T00:19:20;0.40;;;0.40;;
57593;SDS011;43423;46.510;6.686;2023-05-10T00:21:46;5.78;;;1.70;;
57593;SDS011;43423;46.510;6.686;2023-05-10T00:24:11;0.82;;;0.55;;
57593;SDS011;43423;46.510;6.686;2023-05-10T00:26:37;0.80;;;0.70;;
57593;SDS011;43423;46.510;6.686;2023-05-10T00:29:02;3.95;;;1.23;;
57593;SDS011;43423;46.510;6.686;2023-05-10T00:31:28;2.42;;;0.60;;
57593;SDS011;43423;46.510;6.686;2023-05-10T00:33:54;0.73;;;0.57;;
57593;SDS011;43423;46.510;6.686;2023-05-10T00:36:20;2.22;;;0.70;;
57593;SDS011;43423;46.510;6.686;2023-05-10T00:38:46;3.85;;;0.85;;
57593;SDS011;43423;46.510;6.686;2023-05-10T00:41:12;4.05;;;0.88;;
57593;SDS011;43423;46.510;6.686;2023-05-10T00:43:37;0.70;;;0.70;;
57593;SDS011;43423;46.510;6.686;2023-05-10T00:46:03;2.75;;;0.90;;
57593;SDS011;43423;46.510;6.686;2023-05-10T00:48:29;1.30;;;0.93;;
57593;SDS011;43423;46.510;6.686;2023-05-10T00:50:55;2.25;;;0.70;;
57593;SDS011;43423;46.510;6.686;2023-05-10T00:53:20;5.10;;;0.93;;
57593;SDS011;43423;46.510;6.686;2023-05-10T00:55:47;3.95;;;0.90;;
57593;SDS011;43423;46.510;6.686;2023-05-10T00:58:12;0.80;;;0.80;;
57593;SDS011;43423;46.510;6.686;2023-05-10T01:00:38;1.45;;;0.85;;
57593;SDS011;43423;46.510;6.686;2023-05-10T01:03:07;2.55;;;1.33;;
57593;SDS011;43423;46.510;6.686;2023-05-10T01:05:32;1.55;;;1.17;;
57593;SDS011;43423;46.510;6.686;2023-05-10T01:07:58;0.80;;;0.80;;
57593;SDS011;43423;46.510;6.686;2023-05-10T01:10:23;1.40;;;1.08;;
57593;SDS011;43423;46.510;6.686;2023-05-10T01:12:49;1.27;;;1.17;;
57593;SDS011;43423;46.510;6.686;2023-05-10T01:15:15;0.57;;;0.57;;
57593;SDS011;43423;46.510;6.686;2023-05-10T01:17:42;1.85;;;0.70;;
57593;SDS011;43423;46.510;6.686;2023-05-10T01:20:10;1.75;;;0.80;;
57593;SDS011;43423;46.510;6.686;2023-05-10T01:28:30;2.40;;;0.70;;
57593;SDS011;43423;46.510;6.686;2023-05-10T01:38:43;1.63;;;0.88;;
57593;SDS011;43423;46.510;6.686;2023-05-10T01:41:28;2.42;;;0.75;;
57593;SDS011;43423;46.510;6.686;2023-05-10T01:44:04;1.05;;;0.90;;
57593;SDS011;43423;46.510;6.686;2023-05-10T01:46:35;2.47;;;0.90;;
57593;SDS011;43423;46.510;6.686;2023-05-10T01:49:08;1.00;;;0.80;;
57593;SDS011;43423;46.510;6.686;2023-05-10T01:51:38;2.22;;;0.60;;
57593;SDS011;43423;46.510;6.686;2023-05-10T01:54:07;0.98;;;0.70;;
57593;SDS011;43423;46.510;6.686;2023-05-10T01:56:36;0.80;;;0.80;;
57593;SDS011;43423;46.510;6.686;2023-05-10T01:59:05;1.85;;;0.90;;
57593;SDS011;43423;46.510;6.686;2023-05-10T02:01:38;1.00;;;0.70;;
57593;SDS011;43423;46.510;6.686;2023-05-10T02:04:06;0.70;;;0.68;;
57593;SDS011;43423;46.510;6.686;2023-05-10T02:06:34;0.80;;;0.70;;
57593;SDS011;43423;46.510;6.686;2023-05-10T02:09:00;0.50;;;0.40;;
57593;SDS011;43423;46.510;6.686;2023-05-10T02:11:27;1.83;;;0.93;;
57593;SDS011;43423;46.510;6.686;2023-05-10T02:13:54;0.98;;;0.70;;
57593;SDS011;43423;46.510;6.686;2023-05-10T02:16:23;2.25;;;0.80;;
57593;SDS011;43423;46.510;6.686;2023-05-10T02:18:51;1.80;;;0.60;;
57593;SDS011;43423;46.510;6.686;2023-05-10T02:21:19;1.85;;;0.50;;
57593;SDS011;43423;46.510;6.686;2023-05-10T02:23:45;0.55;;;0.50;;
57593;SDS011;43423;46.510;6.686;2023-05-10T02:26:14;1.77;;;0.80;;
57593;SDS011;43423;46.510;6.686;2023-05-10T02:28:41;0.98;;;0.57;;
57593;SDS011;43423;46.510;6.686;2023-05-10T02:31:08;0.70;;;0.70;;
57593;SDS011;43423;46.510;6.686;2023-05-10T02:33:36;3.15;;;0.70;;
57593;SDS011;43423;46.510;6.686;2023-05-10T02:36:04;0.52;;;0.52;;
57593;SDS011;43423;46.510;6.686;2023-05-10T02:38:32;0.75;;;0.60;;
57593;SDS011;43423;46.510;6.686;2023-05-10T02:40:59;0.93;;;0.60;;
57593;SDS011;43423;46.510;6.686;2023-05-10T02:43:25;1.75;;;0.60;;
57593;SDS011;43423;46.510;6.686;2023-05-10T02:45:51;0.50;;;0.50;;
57593;SDS011;43423;46.510;6.686;2023-05-10T02:48:17;1.00;;;0.73;;
57593;SDS011;43423;46.510;6.686;2023-05-10T02:50:44;1.55;;;0.50;;
57593;SDS011;43423;46.510;6.686;2023-05-10T02:53:10;1.00;;;0.65;;
57593;SDS011;43423;46.510;6.686;2023-05-10T02:55:41;2.95;;;0.70;;
57593;SDS011;43423;46.510;6.686;2023-05-10T02:58:10;1.13;;;0.65;;
57593;SDS011;43423;46.510;6.686;2023-05-10T03:00:36;0.80;;;0.65;;
57593;SDS011;43423;46.510;6.686;2023-05-10T03:03:01;2.10;;;0.68;;
57593;SDS011;43423;46.510;6.686;2023-05-10T03:05:27;0.80;;;0.57;;
57593;SDS011;43423;46.510;6.686;2023-05-10T03:07:52;2.08;;;0.95;;
57593;SDS011;43423;46.510;6.686;2023-05-10T03:10:19;2.17;;;1.15;;
57593;SDS011;43423;46.510;6.686;2023-05-10T03:15:37;1.05;;;0.70;;
57593;SDS011;43423;46.510;6.686;2023-05-10T03:18:12;2.05;;;0.75;;
57593;SDS011;43423;46.510;6.686;2023-05-10T03:20:46;1.55;;;1.00;;
57593;SDS011;43423;46.510;6.686;2023-05-10T03:23:20;2.05;;;0.80;;
57593;SDS011;43423;46.510;6.686;2023-05-10T03:25:48;2.67;;;0.77;;
57593;SDS011;43423;46.510;6.686;2023-05-10T03:28:15;1.20;;;0.70;;
57593;SDS011;43423;46.510;6.686;2023-05-10T03:30:42;1.58;;;1.00;;
57593;SDS011;43423;46.510;6.686;2023-05-10T03:33:09;0.70;;;0.70;;
57593;SDS011;43423;46.510;6.686;2023-05-10T03:35:34;1.63;;;0.75;;
57593;SDS011;43423;46.510;6.686;2023-05-10T03:38:00;1.08;;;0.80;;
57593;SDS011;43423;46.510;6.686;2023-05-10T03:40:26;3.13;;;0.90;;
57593;SDS011;43423;46.510;6.686;2023-05-10T03:43:00;2.38;;;0.80;;
57593;SDS011;43423;46.510;6.686;2023-05-10T03:45:26;2.22;;;0.80;;
57593;SDS011;43423;46.510;6.686;2023-05-10T03:47:52;1.52;;;0.80;;
57593;SDS011;43423;46.510;6.686;2023-05-10T03:50:18;2.17;;;0.70;;
57593;SDS011;43423;46.510;6.686;2023-05-10T03:52:43;1.35;;;0.80;;
57593;SDS011;43423;46.510;6.686;2023-05-10T03:55:09;1.88;;;0.80;;
57593;SDS011;43423;46.510;6.686;2023-05-10T03:57:35;1.65;;;0.90;;
57593;SDS011;43423;46.510;6.686;2023-05-10T04:00:00;3.30;;;0.80;;
57593;SDS011;43423;46.510;6.686;2023-05-10T04:02:26;0.88;;;0.55;;
57593;SDS011;43423;46.510;6.686;2023-05-10T04:04:52;1.90;;;0.70;;
57593;SDS011;43423;46.510;6.686;2023-05-10T04:07:17;1.08;;;0.80;;
57593;SDS011;43423;46.510;6.686;2023-05-10T04:09:43;2.10;;;1.15;;
57593;SDS011;43423;46.510;6.686;2023-05-10T04:12:08;1.67;;;0.85;;
57593;SDS011;43423;46.510;6.686;2023-05-10T04:14:35;1.33;;;0.90;;
57593;SDS011;43423;46.510;6.686;2023-05-10T04:17:00;1.77;;;0.85;;
57593;SDS011;43423;46.510;6.686;2023-05-10T04:19:29;1.08;;;0.80;;
57593;SDS011;43423;46.510;6.686;2023-05-10T04:21:55;1.48;;;1.05;;
57593;SDS011;43423;46.510;6.686;2023-05-10T04:24:21;1.67;;;0.70;;
57593;SDS011;43423;46.510;6.686;2023-05-10T04:26:47;2.00;;;0.80;;
57593;SDS011;43423;46.510;6.686;2023-05-10T04:29:12;1.80;;;0.57;;
57593;SDS011;43423;46.510;6.686;2023-05-10T04:31:38;2.03;;;0.68;;
57593;SDS011;43423;46.510;6.686;2023-05-10T04:34:03;0.65;;;0.50;;
57593;SDS011;43423;46.510;6.686;2023-05-10T04:36:29;1.60;;;1.00;;
57593;SDS011;43423;46.510;6.686;2023-05-10T04:38:54;0.73;;;0.63;;
57593;SDS011;43423;46.510;6.686;2023-05-10T04:41:20;0.50;;;0.50;;
57593;SDS011;43423;46.510;6.686;2023-05-10T04:43:46;0.68;;;0.50;;
57593;SDS011;43423;46.510;6.686;2023-05-10T04:46:14;0.73;;;0.60;;
57593;SDS011;43423;46.510;6.686;2023-05-10T04:48:39;2.03;;;0.65;;
57593;SDS011;43423;46.510;6.686;2023-05-10T04:51:05;1.42;;;0.85;;
57593;SDS011;43423;46.510;6.686;2023-05-10T04:53:31;0.32;;;0.32;;
57593;SDS011;43423;46.510;6.686;2023-05-10T04:55:57;0.88;;;0.55;;
57593;SDS011;43423;46.510;6.686;2023-05-10T04:58:23;0.80;;;0.50;;
57593;SDS011;43423;46.510;6.686;2023-05-10T05:00:48;0.93;;;0.60;;
57593;SDS011;43423;46.510;6.686;2023-05-10T05:03:14;4.82;;;0.50;;
57593;SDS011;43423;46.510;6.686;2023-05-10T05:05:39;2.15;;;0.50;;
57593;SDS011;43423;46.510;6.686;2023-05-10T05:08:05;0.57;;;0.38;;
57593;SDS011;43423;46.510;6.686;2023-05-10T05:10:31;0.45;;;0.45;;
57593;SDS011;43423;46.510;6.686;2023-05-10T05:12:56;0.43;;;0.40;;
57593;SDS011;43423;46.510;6.686;2023-05-10T05:15:22;1.02;;;0.80;;
57593;SDS011;43423;46.510;6.686;2023-05-10T05:17:47;1.95;;;1.40;;
57593;SDS011;43423;46.510;6.686;2023-05-10T05:20:14;0.98;;;0.50;;
57593;SDS011;43423;46.510;6.686;2023-05-10T05:22:39;0.57;;;0.50;;
57593;SDS011;43423;46.510;6.686;2023-05-10T05:25:05;3.30;;;0.65;;
57593;SDS011;43423;46.510;6.686;2023-05-10T05:27:31;1.23;;;0.43;;
57593;SDS011;43423;46.510;6.686;2023-05-10T05:29:57;1.50;;;0.50;;
57593;SDS011;43423;46.510;6.686;2023-05-10T05:32:24;2.67;;;0.52;;
57593;SDS011;43423;46.510;6.686;2023-05-10T05:34:50;0.65;;;0.50;;
57593;SDS011;43423;46.510;6.686;2023-05-10T05:37:17;2.25;;;0.70;;
57593;SDS011;43423;46.510;6.686;2023-05-10T05:39:44;1.10;;;0.50;;
57593;SDS011;43423;46.510;6.686;2023-05-10T05:42:11;0.85;;;0.52;;
57593;SDS011;43423;46.510;6.686;2023-05-10T05:44:38;0.88;;;0.63;;
57593;SDS011;43423;46.510;6.686;2023-05-10T05:47:04;1.30;;;0.82;;
57593;SDS011;43423;46.510;6.686;2023-05-10T05:49:30;4.47;;;0.77;;
57593;SDS011;43423;46.510;6.686;2023-05-10T05:51:59;0.60;;;0.60;;
57593;SDS011;43423;46.510;6.686;2023-05-10T05:54:28;1.55;;;0.60;;
57593;SDS011;43423;46.510;6.686;2023-05-10T05:56:54;1.60;;;0.52;;
57593;SDS011;43423;46.510;6.686;2023-05-10T05:59:20;1.55;;;0.70;;
57593;SDS011;43423;46.510;6.686;2023-05-10T06:01:47;5.43;;;0.73;;
57593;SDS011;43423;46.510;6.686;2023-05-10T06:04:12;1.20;;;0.73;;
57593;SDS011;43423;46.510;6.686;2023-05-10T06:06:38;2.15;;;0.73;;
57593;SDS011;43423;46.510;6.686;2023-05-10T06:09:03;1.45;;;0.70;;
57593;SDS011;43423;46.510;6.686;2023-05-10T06:11:29;3.50;;;0.73;;
57593;SDS011;43423;46.510;6.686;2023-05-10T06:13:57;4.75;;;0.93;;
57593;SDS011;43423;46.510;6.686;2023-05-10T06:16:23;1.33;;;0.75;;
57593;SDS011;43423;46.510;6.686;2023-05-10T06:18:49;2.58;;;0.85;;
57593;SDS011;43423;46.510;6.686;2023-05-10T06:21:14;2.40;;;0.73;;
57593;SDS011;43423;46.510;6.686;2023-05-10T06:23:41;2.05;;;0.80;;
57593;SDS011;43423;46.510;6.686;2023-05-10T06:26:07;0.55;;;0.55;;
57593;SDS011;43423;46.510;6.686;2023-05-10T06:28:32;1.98;;;0.82;;
57593;SDS011;43423;46.510;6.686;2023-05-10T06:30:59;1.48;;;0.90;;
57593;SDS011;43423;46.510;6.686;2023-05-10T06:33:24;0.73;;;0.73;;
57593;SDS011;43423;46.510;6.686;2023-05-10T06:35:50;1.35;;;0.77;;
57593;SDS011;43423;46.510;6.686;2023-05-10T06:38:15;2.38;;;1.00;;
57593;SDS011;43423;46.510;6.686;2023-05-10T06:40:41;1.50;;;1.00;;
57593;SDS011;43423;46.510;6.686;2023-05-10T06:43:07;2.42;;;0.90;;
57593;SDS011;43423;46.510;6.686;2023-05-10T06:45:33;1.30;;;0.65;;
57593;SDS011;43423;46.510;6.686;2023-05-10T06:47:58;3.88;;;1.08;;
57593;SDS011;43423;46.510;6.686;2023-05-10T06:50:24;1.95;;;1.10;;
57593;SDS011;43423;46.510;6.686;2023-05-10T06:52:50;6.07;;;1.02;;
57593;SDS011;43423;46.510;6.686;2023-05-10T06:55:16;2.15;;;1.05;;
57593;SDS011;43423;46.510;6.686;2023-05-10T06:57:41;2.45;;;0.85;;
57593;SDS011;43423;46.510;6.686;2023-05-10T07:00:07;2.97;;;0.90;;
57593;SDS011;43423;46.510;6.686;2023-05-10T07:02:34;4.50;;;1.38;;
57593;SDS011;43423;46.510;6.686;2023-05-10T07:05:00;5.20;;;1.30;;
57593;SDS011;43423;46.510;6.686;2023-05-10T07:07:27;1.63;;;1.23;;
57593;SDS011;43423;46.510;6.686;2023-05-10T07:09:53;4.32;;;1.10;;
57593;SDS011;43423;46.510;6.686;2023-05-10T07:12:18;2.95;;;1.00;;
57593;SDS011;43423;46.510;6.686;2023-05-10T07:14:44;2.75;;;1.10;;
57593;SDS011;43423;46.510;6.686;2023-05-10T07:17:09;2.05;;;0.88;;
57593;SDS011;43423;46.510;6.686;2023-05-10T07:19:35;3.72;;;1.25;;
57593;SDS011;43423;46.510;6.686;2023-05-10T07:22:01;4.68;;;1.17;;
57593;SDS011;43423;46.510;6.686;2023-05-10T07:24:26;2.45;;;1.52;;
57593;SDS011;43423;46.510;6.686;2023-05-10T07:26:52;3.35;;;0.98;;
57593;SDS011;43423;46.510;6.686;2023-05-10T07:29:18;1.30;;;1.00;;
57593;SDS011;43423;46.510;6.686;2023-05-10T07:31:43;1.65;;;0.75;;
57593;SDS011;43423;46.510;6.686;2023-05-10T07:34:09;2.15;;;1.00;;
57593;SDS011;43423;46.510;6.686;2023-05-10T07:36:34;2.25;;;0.90;;
57593;SDS011;43423;46.510;6.686;2023-05-10T07:39:00;5.10;;;1.08;;
57593;SDS011;43423;46.510;6.686;2023-05-10T07:41:26;3.58;;;1.00;;
57593;SDS011;43423;46.510;6.686;2023-05-10T07:43:52;5.05;;;1.00;;
57593;SDS011;43423;46.510;6.686;2023-05-10T07:46:17;0.88;;;0.88;;
57593;SDS011;43423;46.510;6.686;2023-05-10T07:48:45;6.30;;;1.02;;
57593;SDS011;43423;46.510;6.686;2023-05-10T07:51:10;4.60;;;1.00;;
57593;SDS011;43423;46.510;6.686;2023-05-10T07:53:37;12.25;;;2.45;;
57593;SDS011;43423;46.510;6.686;2023-05-10T07:56:20;3.28;;;1.35;;
57593;SDS011;43423;46.510;6.686;2023-05-10T07:58:50;5.55;;;1.23;;
57593;SDS011;43423;46.510;6.686;2023-05-10T08:01:16;15.68;;;2.17;;
57593;SDS011;43423;46.510;6.686;2023-05-10T08:03:42;4.13;;;1.42;;
57593;SDS011;43423;46.510;6.686;2023-05-10T08:06:07;4.32;;;1.15;;
57593;SDS011;43423;46.510;6.686;2023-05-10T08:08:33;4.28;;;1.40;;
57593;SDS011;43423;46.510;6.686;2023-05-10T08:10:59;5.22;;;1.00;;
57593;SDS011;43423;46.510;6.686;2023-05-10T08:13:24;3.05;;;0.80;;
57593;SDS011;43423;46.510;6.686;2023-05-10T08:15:50;4.90;;;1.20;;
57593;SDS011;43423;46.510;6.686;2023-05-10T08:18:18;1.60;;;0.82;;
57593;SDS011;43423;46.510;6.686;2023-05-10T08:20:44;4.30;;;1.20;;
57593;SDS011;43423;46.510;6.686;2023-05-10T08:23:11;5.65;;;1.00;;
57593;SDS011;43423;46.510;6.686;2023-05-10T08:25:38;1.40;;;0.82;;
57593;SDS011;43423;46.510;6.686;2023-05-10T08:28:03;2.72;;;1.08;;
57593;SDS011;43423;46.510;6.686;2023-05-10T08:30:29;2.95;;;0.98;;
57593;SDS011;43423;46.510;6.686;2023-05-10T08:32:54;1.67;;;0.70;;
57593;SDS011;43423;46.510;6.686;2023-05-10T08:35:20;1.05;;;0.60;;
57593;SDS011;43423;46.510;6.686;2023-05-10T08:37:46;0.98;;;0.60;;
57593;SDS011;43423;46.510;6.686;2023-05-10T08:40:11;0.77;;;0.47;;
57593;SDS011;43423;46.510;6.686;2023-05-10T08:42:39;4.13;;;0.90;;
57593;SDS011;43423;46.510;6.686;2023-05-10T08:45:08;1.60;;;0.50;;
57593;SDS011;43423;46.510;6.686;2023-05-10T08:47:36;0.65;;;0.47;;
57593;SDS011;43423;46.510;6.686;2023-05-10T08:50:03;1.48;;;0.43;;
57593;SDS011;43423;46.510;6.686;2023-05-10T08:52:30;1.35;;;0.40;;
57593;SDS011;43423;46.510;6.686;2023-05-10T08:54:57;1.20;;;0.60;;
57593;SDS011;43423;46.510;6.686;2023-05-10T08:57:23;1.38;;;0.80;;
57593;SDS011;43423;46.510;6.686;2023-05-10T08:59:49;2.35;;;1.42;;
57593;SDS011;43423;46.510;6.686;2023-05-10T09:02:14;1.42;;;0.70;;
57593;SDS011;43423;46.510;6.686;2023-05-10T09:04:41;1.48;;;0.82;;
57593;SDS011;43423;46.510;6.686;2023-05-10T09:07:07;1.40;;;0.65;;
57593;SDS011;43423;46.510;6.686;2023-05-10T09:09:33;1.40;;;0.55;;
57593;SDS011;43423;46.510;6.686;2023-05-10T09:11:59;2.45;;;0.90;;
57593;SDS011;43423;46.510;6.686;2023-05-10T09:14:25;2.70;;;0.88;;
57593;SDS011;43423;46.510;6.686;2023-05-10T09:16:51;3.10;;;1.60;;
57593;SDS011;43423;46.510;6.686;2023-05-10T09:19:19;2.42;;;1.23;;
57593;SDS011;43423;46.510;6.686;2023-05-10T09:21:44;2.17;;;0.90;;
57593;SDS011;43423;46.510;6.686;2023-05-10T09:24:10;2.50;;;1.10;;
57593;SDS011;43423;46.510;6.686;2023-05-10T09:26:45;4.65;;;1.33;;
57593;SDS011;43423;46.510;6.686;2023-05-10T09:29:15;4.10;;;1.27;;
57593;SDS011;43423;46.510;6.686;2023-05-10T09:34:20;4.82;;;1.48;;
57593;SDS011;43423;46.510;6.686;2023-05-10T09:36:55;6.13;;;1.60;;
57593;SDS011;43423;46.510;6.686;2023-05-10T09:39:32;6.65;;;2.13;;
57593;SDS011;43423;46.510;6.686;2023-05-10T09:41:58;5.07;;;1.33;;
57593;SDS011;43423;46.510;6.686;2023-05-10T09:44:26;3.40;;;1.20;;
57593;SDS011;43423;46.510;6.686;2023-05-10T09:46:51;2.75;;;1.00;;
57593;SDS011;43423;46.510;6.686;2023-05-10T09:49:18;2.83;;;1.13;;
57593;SDS011;43423;46.510;6.686;2023-05-10T09:51:45;3.13;;;1.30;;
57593;SDS011;43423;46.510;6.686;2023-05-10T09:54:14;3.20;;;1.30;;
57593;SDS011;43423;46.510;6.686;2023-05-10T09:56:41;3.15;;;1.33;;
57593;SDS011;43423;46.510;6.686;2023-05-10T09:59:09;5.68;;;1.13;;
57593;SDS011;43423;46.510;6.686;2023-05-10T10:01:36;10.18;;;1.23;;
57593;SDS011;43423;46.510;6.686;2023-05-10T10:04:02;7.25;;;1.42;;
57593;SDS011;43423;46.510;6.686;2023-05-10T10:06:34;5.38;;;1.38;;
57593;SDS011;43423;46.510;6.686;2023-05-10T10:09:01;2.85;;;1.40;;
57593;SDS011;43423;46.510;6.686;2023-05-10T10:11:27;3.60;;;1.35;;
57593;SDS011;43423;46.510;6.686;2023-05-10T10:13:53;8.00;;;1.70;;
57593;SDS011;43423;46.510;6.686;2023-05-10T10:16:20;3.25;;;1.30;;
57593;SDS011;43423;46.510;6.686;2023-05-10T10:18:45;6.55;;;1.70;;
57593;SDS011;43423;46.510;6.686;2023-05-10T10:21:13;3.17;;;1.60;;
57593;SDS011;43423;46.510;6.686;2023-05-10T10:23:40;5.03;;;1.73;;
57593;SDS011;43423;46.510;6.686;2023-05-10T10:26:05;7.43;;;1.80;;
57593;SDS011;43423;46.510;6.686;2023-05-10T10:36:31;4.38;;;1.17;;
57593;SDS011;43423;46.510;6.686;2023-05-10T10:38:59;4.95;;;1.63;;
57593;SDS011;43423;46.510;6.686;2023-05-10T10:41:29;7.20;;;1.45;;
57593;SDS011;43423;46.510;6.686;2023-05-10T10:50:01;3.00;;;1.30;;
57593;SDS011;43423;46.510;6.686;2023-05-10T10:52:47;6.32;;;1.65;;
57593;SDS011;43423;46.510;6.686;2023-05-10T10:55:17;5.28;;;1.63;;
57593;SDS011;43423;46.510;6.686;2023-05-10T10:57:48;7.30;;;1.70;;
57593;SDS011;43423;46.510;6.686;2023-05-10T11:00:23;7.32;;;1.30;;
57593;SDS011;43423;46.510;6.686;2023-05-10T11:05:38;6.18;;;1.40;;
57593;SDS011;43423;46.510;6.686;2023-05-10T11:10:51;6.70;;;1.58;;
57593;SDS011;43423;46.510;6.686;2023-05-10T11:13:27;3.75;;;1.13;;
57593;SDS011;43423;46.510;6.686;2023-05-10T11:15:52;5.68;;;1.55;;
57593;SDS011;43423;46.510;6.686;2023-05-10T11:18:29;4.07;;;1.13;;
57593;SDS011;43423;46.510;6.686;2023-05-10T11:20:59;6.47;;;1.63;;
57593;SDS011;43423;46.510;6.686;2023-05-10T11:26:08;5.45;;;1.75;;
57593;SDS011;43423;46.510;6.686;2023-05-10T11:28:40;3.25;;;1.23;;
57593;SDS011;43423;46.510;6.686;2023-05-10T11:31:15;2.10;;;1.00;;
57593;SDS011;43423;46.510;6.686;2023-05-10T11:33:46;7.65;;;1.08;;
57593;SDS011;43423;46.510;6.686;2023-05-10T11:36:14;2.08;;;0.80;;
57593;SDS011;43423;46.510;6.686;2023-05-10T11:38:50;2.03;;;0.75;;
57593;SDS011;43423;46.510;6.686;2023-05-10T11:41:16;1.73;;;0.40;;
57593;SDS011;43423;46.510;6.686;2023-05-10T11:43:43;2.00;;;0.85;;
57593;SDS011;43423;46.510;6.686;2023-05-10T11:46:12;2.30;;;0.68;;
57593;SDS011;43423;46.510;6.686;2023-05-10T11:48:38;1.88;;;0.47;;
57593;SDS011;43423;46.510;6.686;2023-05-10T11:51:06;3.03;;;0.60;;
57593;SDS011;43423;46.510;6.686;2023-05-10T11:53:33;6.95;;;1.17;;
57593;SDS011;43423;46.510;6.686;2023-05-10T11:56:02;1.20;;;0.60;;
57593;SDS011;43423;46.510;6.686;2023-05-10T11:58:30;0.70;;;0.57;;
57593;SDS011;43423;46.510;6.686;2023-05-10T12:00:56;2.28;;;0.73;;
57593;SDS011;43423;46.510;6.686;2023-05-10T12:03:22;2.72;;;0.80;;
57593;SDS011;43423;46.510;6.686;2023-05-10T12:05:48;1.52;;;0.77;;
57593;SDS011;43423;46.510;6.686;2023-05-10T12:08:14;2.95;;;1.27;;
57593;SDS011;43423;46.510;6.686;2023-05-10T12:10:44;4.13;;;1.05;;
57593;SDS011;43423;46.510;6.686;2023-05-10T12:13:11;2.33;;;0.77;;
57593;SDS011;43423;46.510;6.686;2023-05-10T12:15:38;5.40;;;1.50;;
57593;SDS011;43423;46.510;6.686;2023-05-10T12:18:04;4.35;;;1.00;;
57593;SDS011;43423;46.510;6.686;2023-05-10T12:20:30;3.72;;;0.80;;
57593;SDS011;43423;46.510;6.686;2023-05-10T12:22:56;4.22;;;0.80;;
57593;SDS011;43423;46.510;6.686;2023-05-10T12:25:32;2.53;;;0.93;;
57593;SDS011;43423;46.510;6.686;2023-05-10T12:30:28;4.60;;;0.80;;
57593;SDS011;43423;46.510;6.686;2023-05-10T12:33:00;2.13;;;0.80;;
57593;SDS011;43423;46.510;6.686;2023-05-10T12:35:49;2.00;;;0.70;;
57593;SDS011;43423;46.510;6.686;2023-05-10T12:38:24;2.63;;;0.75;;
57593;SDS011;43423;46.510;6.686;2023-05-10T12:40:59;1.05;;;0.70;;
57593;SDS011;43423;46.510;6.686;2023-05-10T12:43:27;3.10;;;0.60;;
57593;SDS011;43423;46.510;6.686;2023-05-10T12:45:52;1.55;;;0.52;;
57593;SDS011;43423;46.510;6.686;2023-05-10T12:48:18;2.03;;;0.77;;
57593;SDS011;43423;46.510;6.686;2023-05-10T12:50:44;1.95;;;0.68;;
57593;SDS011;43423;46.510;6.686;2023-05-10T12:53:10;1.58;;;0.68;;
57593;SDS011;43423;46.510;6.686;2023-05-10T12:55:36;2.05;;;0.95;;
57593;SDS011;43423;46.510;6.686;2023-05-10T12:58:02;3.58;;;0.70;;
57593;SDS011;43423;46.510;6.686;2023-05-10T13:00:27;2.20;;;0.80;;
57593;SDS011;43423;46.510;6.686;2023-05-10T13:02:53;2.00;;;0.70;;
57593;SDS011;43423;46.510;6.686;2023-05-10T13:05:18;4.40;;;1.10;;
57593;SDS011;43423;46.510;6.686;2023-05-10T13:07:44;2.42;;;0.82;;
57593;SDS011;43423;46.510;6.686;2023-05-10T13:10:10;1.48;;;0.60;;
57593;SDS011;43423;46.510;6.686;2023-05-10T13:12:36;1.63;;;0.93;;
57593;SDS011;43423;46.510;6.686;2023-05-10T13:15:02;1.00;;;0.68;;
57593;SDS011;43423;46.510;6.686;2023-05-10T13:17:28;1.05;;;0.80;;
57593;SDS011;43423;46.510;6.686;2023-05-10T13:19:54;1.67;;;0.77;;
57593;SDS011;43423;46.510;6.686;2023-05-10T13:22:20;2.33;;;0.75;;
57593;SDS011;43423;46.510;6.686;2023-05-10T13:24:45;2.55;;;0.77;;
57593;SDS011;43423;46.510;6.686;2023-05-10T13:27:11;3.17;;;0.80;;
57593;SDS011;43423;46.510;6.686;2023-05-10T13:29:37;2.67;;;0.80;;
57593;SDS011;43423;46.510;6.686;2023-05-10T13:32:02;3.30;;;1.00;;
57593;SDS011;43423;46.510;6.686;2023-05-10T13:34:28;2.55;;;0.63;;
57593;SDS011;43423;46.510;6.686;2023-05-10T13:36:53;0.98;;;0.80;;
57593;SDS011;43423;46.510;6.686;2023-05-10T13:39:20;0.63;;;0.40;;
57593;SDS011;43423;46.510;6.686;2023-05-10T13:41:46;0.63;;;0.50;;
57593;SDS011;43423;46.510;6.686;2023-05-10T13:44:12;0.93;;;0.57;;
57593;SDS011;43423;46.510;6.686;2023-05-10T13:46:39;0.52;;;0.20;;
57593;SDS011;43423;46.510;6.686;2023-05-10T13:49:05;0.30;;;0.25;;
57593;SDS011;43423;46.510;6.686;2023-05-10T13:51:31;1.02;;;0.30;;
57593;SDS011;43423;46.510;6.686;2023-05-10T13:53:57;0.45;;;0.30;;
57593;SDS011;43423;46.510;6.686;2023-05-10T13:56:23;0.38;;;0.17;;
57593;SDS011;43423;46.510;6.686;2023-05-10T13:58:49;0.20;;;0.10;;
57593;SDS011;43423;46.510;6.686;2023-05-10T14:01:14;1.25;;;0.22;;
57593;SDS011;43423;46.510;6.686;2023-05-10T14:03:40;1.85;;;0.20;;
57593;SDS011;43423;46.510;6.686;2023-05-10T14:06:05;0.93;;;0.28;;
57593;SDS011;43423;46.510;6.686;2023-05-10T14:08:32;1.60;;;0.47;;
57593;SDS011;43423;46.510;6.686;2023-05-10T14:10:58;0.80;;;0.20;;
57593;SDS011;43423;46.510;6.686;2023-05-10T14:13:23;1.00;;;0.30;;
57593;SDS011;43423;46.510;6.686;2023-05-10T14:15:50;1.48;;;0.40;;
57593;SDS011;43423;46.510;6.686;2023-05-10T14:18:16;0.45;;;0.43;;
57593;SDS011;43423;46.510;6.686;2023-05-10T14:20:41;3.70;;;0.43;;
57593;SDS011;43423;46.510;6.686;2023-05-10T14:23:07;0.70;;;0.40;;
57593;SDS011;43423;46.510;6.686;2023-05-10T14:25:33;0.30;;;0.30;;
57593;SDS011;43423;46.510;6.686;2023-05-10T14:27:59;0.40;;;0.40;;
57593;SDS011;43423;46.510;6.686;2023-05-10T14:30:25;0.38;;;0.30;;
57593;SDS011;43423;46.510;6.686;2023-05-10T14:32:50;1.02;;;0.43;;
57593;SDS011;43423;46.510;6.686;2023-05-10T14:35:18;0.75;;;0.40;;
57593;SDS011;43423;46.510;6.686;2023-05-10T14:37:43;0.63;;;0.30;;
57593;SDS011;43423;46.510;6.686;2023-05-10T14:40:09;0.30;;;0.30;;
57593;SDS011;43423;46.510;6.686;2023-05-10T14:42:34;0.30;;;0.30;;
57593;SDS011;43423;46.510;6.686;2023-05-10T14:45:00;0.50;;;0.30;;
57593;SDS011;43423;46.510;6.686;2023-05-10T14:47:25;1.77;;;0.40;;
57593;SDS011;43423;46.510;6.686;2023-05-10T14:49:51;0.70;;;0.30;;
57593;SDS011;43423;46.510;6.686;2023-05-10T14:52:16;0.40;;;0.38;;
57593;SDS011;43423;46.510;6.686;2023-05-10T14:54:42;0.50;;;0.50;;
57593;SDS011;43423;46.510;6.686;2023-05-10T14:57:08;1.00;;;0.38;;
57593;SDS011;43423;46.510;6.686;2023-05-10T14:59:33;0.50;;;0.50;;
57593;SDS011;43423;46.510;6.686;2023-05-10T15:01:59;3.08;;;0.40;;
57593;SDS011;43423;46.510;6.686;2023-05-10T15:04:24;1.35;;;0.63;;
57593;SDS011;43423;46.510;6.686;2023-05-10T15:06:50;1.85;;;0.40;;
57593;SDS011;43423;46.510;6.686;2023-05-10T15:09:15;1.40;;;0.55;;
57593;SDS011;43423;46.510;6.686;2023-05-10T15:11:41;0.70;;;0.50;;
57593;SDS011;43423;46.510;6.686;2023-05-10T15:14:07;1.27;;;0.50;;
57593;SDS011;43423;46.510;6.686;2023-05-10T15:16:32;1.17;;;0.52;;
57593;SDS011;43423;46.510;6.686;2023-05-10T15:18:58;1.05;;;0.30;;
57593;SDS011;43423;46.510;6.686;2023-05-10T15:21:23;0.30;;;0.30;;
57593;SDS011;43423;46.510;6.686;2023-05-10T15:23:49;2.67;;;0.80;;
57593;SDS011;43423;46.510;6.686;2023-05-10T15:26:14;0.70;;;0.60;;
57593;SDS011;43423;46.510;6.686;2023-05-10T15:28:40;0.93;;;0.50;;
57593;SDS011;43423;46.510;6.686;2023-05-10T15:31:05;2.35;;;0.60;;